sensor_id;sensor_type;location;lat;lon;timestamp;P1;durP1;ratioP1;P2;durP2;ratioP2
19798;SDS011;10059;59.850;10.454;2022-10-23T00:01:29;12.40;;;7.07;;
19798;SDS011;10059;59.850;10.454;2022-10-23T00:03:58;15.20;;;7.10;;
19798;SDS011;10059;59.850;10.454;2022-10-23T00:06:26;11.83;;;7.00;;
19798;SDS011;10059;59.850;10.454;2022-10-23T00:08:54;10.33;;;6.60;;
19798;SDS011;10059;59.850;10.454;2022-10-23T00:11:24;11.63;;;7.10;;
19798;SDS011;10059;59.850;10.454;2022-10-23T00:13:53;11.77;;;6.70;;
19798;SDS011;10059;59.850;10.454;2022-10-23T00:16:21;11.53;;;6.67;;
19798;SDS011;10059;59.850;10.454;2022-10-23T00:18:48;10.30;;;6.03;;
19798;SDS011;10059;59.850;10.454;2022-10-23T00:21:16;8.83;;;5.70;;
19798;SDS011;10059;59.850;10.454;2022-10-23T00:23:43;10.33;;;6.10;;
19798;SDS011;10059;59.850;10.454;2022-10-23T00:26:10;11.13;;;6.60;;
19798;SDS011;10059;59.850;10.454;2022-10-23T00:28:41;10.17;;;6.60;;
19798;SDS011;10059;59.850;10.454;2022-10-23T00:31:08;11.83;;;6.90;;
19798;SDS011;10059;59.850;10.454;2022-10-23T00:33:35;10.73;;;6.60;;
19798;SDS011;10059;59.850;10.454;2022-10-23T00:36:03;11.57;;;6.60;;
19798;SDS011;10059;59.850;10.454;2022-10-23T00:38:31;10.23;;;6.67;;
19798;SDS011;10059;59.850;10.454;2022-10-23T00:40:58;16.17;;;6.30;;
19798;SDS011;10059;59.850;10.454;2022-10-23T00:43:26;11.43;;;6.33;;
19798;SDS011;10059;59.850;10.454;2022-10-23T00:45:56;10.07;;;6.20;;
19798;SDS011;10059;59.850;10.454;2022-10-23T00:48:23;10.93;;;6.27;;
19798;SDS011;10059;59.850;10.454;2022-10-23T00:50:52;11.77;;;6.70;;
19798;SDS011;10059;59.850;10.454;2022-10-23T00:53:20;9.03;;;5.87;;
19798;SDS011;10059;59.850;10.454;2022-10-23T00:55:49;10.73;;;5.63;;
19798;SDS011;10059;59.850;10.454;2022-10-23T00:58:19;9.73;;;5.80;;
19798;SDS011;10059;59.850;10.454;2022-10-23T01:00:47;9.67;;;5.70;;
19798;SDS011;10059;59.850;10.454;2022-10-23T01:03:18;10.30;;;5.70;;
19798;SDS011;10059;59.850;10.454;2022-10-23T01:05:48;11.83;;;5.77;;
19798;SDS011;10059;59.850;10.454;2022-10-23T01:08:22;13.73;;;5.80;;
19798;SDS011;10059;59.850;10.454;2022-10-23T01:10:56;10.00;;;5.20;;
19798;SDS011;10059;59.850;10.454;2022-10-23T01:13:31;8.17;;;4.83;;
19798;SDS011;10059;59.850;10.454;2022-10-23T01:16:04;8.03;;;5.17;;
19798;SDS011;10059;59.850;10.454;2022-10-23T01:18:38;10.70;;;5.63;;
19798;SDS011;10059;59.850;10.454;2022-10-23T01:21:11;10.60;;;5.37;;
19798;SDS011;10059;59.850;10.454;2022-10-23T01:23:55;8.60;;;5.33;;
19798;SDS011;10059;59.850;10.454;2022-10-23T01:26:41;9.10;;;5.07;;
19798;SDS011;10059;59.850;10.454;2022-10-23T01:29:24;7.73;;;4.70;;
19798;SDS011;10059;59.850;10.454;2022-10-23T01:31:55;7.80;;;5.20;;
19798;SDS011;10059;59.850;10.454;2022-10-23T01:34:27;6.83;;;5.00;;
19798;SDS011;10059;59.850;10.454;2022-10-23T01:37:00;7.20;;;4.80;;
19798;SDS011;10059;59.850;10.454;2022-10-23T01:39:31;6.90;;;4.57;;
19798;SDS011;10059;59.850;10.454;2022-10-23T01:42:02;8.57;;;4.70;;
19798;SDS011;10059;59.850;10.454;2022-10-23T01:44:33;6.40;;;4.60;;
19798;SDS011;10059;59.850;10.454;2022-10-23T01:47:05;8.27;;;4.73;;
19798;SDS011;10059;59.850;10.454;2022-10-23T01:49:35;6.63;;;4.20;;
19798;SDS011;10059;59.850;10.454;2022-10-23T01:52:05;7.07;;;4.77;;
19798;SDS011;10059;59.850;10.454;2022-10-23T01:54:35;6.00;;;4.00;;
19798;SDS011;10059;59.850;10.454;2022-10-23T01:57:05;6.83;;;4.83;;
19798;SDS011;10059;59.850;10.454;2022-10-23T01:59:37;8.40;;;4.70;;
19798;SDS011;10059;59.850;10.454;2022-10-23T02:02:08;8.67;;;4.90;;
19798;SDS011;10059;59.850;10.454;2022-10-23T02:04:39;7.03;;;4.83;;
19798;SDS011;10059;59.850;10.454;2022-10-23T02:07:11;8.20;;;4.83;;
19798;SDS011;10059;59.850;10.454;2022-10-23T02:09:38;10.23;;;5.00;;
19798;SDS011;10059;59.850;10.454;2022-10-23T02:12:06;8.60;;;5.43;;
19798;SDS011;10059;59.850;10.454;2022-10-23T02:14:38;8.20;;;5.20;;
19798;SDS011;10059;59.850;10.454;2022-10-23T02:17:12;8.20;;;5.07;;
19798;SDS011;10059;59.850;10.454;2022-10-23T02:19:45;8.20;;;5.30;;
19798;SDS011;10059;59.850;10.454;2022-10-23T02:22:16;8.63;;;5.17;;
19798;SDS011;10059;59.850;10.454;2022-10-23T02:24:48;9.30;;;4.70;;
19798;SDS011;10059;59.850;10.454;2022-10-23T02:27:19;7.47;;;4.67;;
19798;SDS011;10059;59.850;10.454;2022-10-23T02:29:52;11.60;;;4.70;;
19798;SDS011;10059;59.850;10.454;2022-10-23T02:32:22;7.90;;;4.67;;
19798;SDS011;10059;59.850;10.454;2022-10-23T02:34:51;9.77;;;4.50;;
19798;SDS011;10059;59.850;10.454;2022-10-23T02:37:19;12.80;;;4.97;;
19798;SDS011;10059;59.850;10.454;2022-10-23T02:39:46;13.27;;;7.53;;
19798;SDS011;10059;59.850;10.454;2022-10-23T02:42:13;11.80;;;7.27;;
19798;SDS011;10059;59.850;10.454;2022-10-23T02:44:49;13.30;;;7.87;;
19798;SDS011;10059;59.850;10.454;2022-10-23T02:47:29;10.93;;;7.37;;
19798;SDS011;10059;59.850;10.454;2022-10-23T02:50:12;9.90;;;6.23;;
19798;SDS011;10059;59.850;10.454;2022-10-23T02:52:48;13.17;;;6.80;;
19798;SDS011;10059;59.850;10.454;2022-10-23T02:55:24;10.27;;;6.50;;
19798;SDS011;10059;59.850;10.454;2022-10-23T02:58:00;10.63;;;6.80;;
19798;SDS011;10059;59.850;10.454;2022-10-23T03:00:36;14.90;;;8.20;;
19798;SDS011;10059;59.850;10.454;2022-10-23T03:03:08;18.10;;;8.80;;
19798;SDS011;10059;59.850;10.454;2022-10-23T03:05:39;21.30;;;9.30;;
19798;SDS011;10059;59.850;10.454;2022-10-23T03:08:09;18.73;;;9.17;;
19798;SDS011;10059;59.850;10.454;2022-10-23T03:10:37;15.97;;;8.50;;
19798;SDS011;10059;59.850;10.454;2022-10-23T03:13:04;19.50;;;9.53;;
19798;SDS011;10059;59.850;10.454;2022-10-23T03:15:31;20.93;;;9.53;;
19798;SDS011;10059;59.850;10.454;2022-10-23T03:17:59;22.60;;;10.47;;
19798;SDS011;10059;59.850;10.454;2022-10-23T03:20:26;29.97;;;10.67;;
19798;SDS011;10059;59.850;10.454;2022-10-23T03:22:53;23.10;;;11.53;;
19798;SDS011;10059;59.850;10.454;2022-10-23T03:25:20;25.47;;;11.07;;
19798;SDS011;10059;59.850;10.454;2022-10-23T03:27:47;25.33;;;10.30;;
19798;SDS011;10059;59.850;10.454;2022-10-23T03:30:14;19.37;;;9.90;;
19798;SDS011;10059;59.850;10.454;2022-10-23T03:32:41;21.00;;;10.37;;
19798;SDS011;10059;59.850;10.454;2022-10-23T03:35:09;17.63;;;9.30;;
19798;SDS011;10059;59.850;10.454;2022-10-23T03:37:36;17.83;;;9.40;;
19798;SDS011;10059;59.850;10.454;2022-10-23T03:40:03;15.77;;;8.70;;
19798;SDS011;10059;59.850;10.454;2022-10-23T03:42:31;16.43;;;8.60;;
19798;SDS011;10059;59.850;10.454;2022-10-23T03:44:58;14.73;;;8.07;;
19798;SDS011;10059;59.850;10.454;2022-10-23T03:47:24;15.77;;;8.80;;
19798;SDS011;10059;59.850;10.454;2022-10-23T03:49:51;15.97;;;8.23;;
19798;SDS011;10059;59.850;10.454;2022-10-23T03:52:19;15.63;;;8.17;;
19798;SDS011;10059;59.850;10.454;2022-10-23T03:54:46;19.90;;;8.23;;
19798;SDS011;10059;59.850;10.454;2022-10-23T03:57:13;15.40;;;8.40;;
19798;SDS011;10059;59.850;10.454;2022-10-23T03:59:40;17.30;;;7.80;;
19798;SDS011;10059;59.850;10.454;2022-10-23T04:02:07;18.53;;;8.67;;
19798;SDS011;10059;59.850;10.454;2022-10-23T04:04:34;12.50;;;7.63;;
19798;SDS011;10059;59.850;10.454;2022-10-23T04:07:01;13.77;;;7.27;;
19798;SDS011;10059;59.850;10.454;2022-10-23T04:09:29;11.53;;;6.80;;
19798;SDS011;10059;59.850;10.454;2022-10-23T04:11:56;10.63;;;6.67;;
19798;SDS011;10059;59.850;10.454;2022-10-23T04:14:23;10.90;;;6.60;;
19798;SDS011;10059;59.850;10.454;2022-10-23T04:16:50;11.13;;;6.07;;
19798;SDS011;10059;59.850;10.454;2022-10-23T04:19:17;10.10;;;6.10;;
19798;SDS011;10059;59.850;10.454;2022-10-23T04:21:44;11.90;;;6.27;;
19798;SDS011;10059;59.850;10.454;2022-10-23T04:24:11;12.30;;;6.20;;
19798;SDS011;10059;59.850;10.454;2022-10-23T04:26:39;10.33;;;5.90;;
19798;SDS011;10059;59.850;10.454;2022-10-23T04:29:06;9.60;;;5.97;;
19798;SDS011;10059;59.850;10.454;2022-10-23T04:31:33;9.50;;;5.83;;
19798;SDS011;10059;59.850;10.454;2022-10-23T04:34:00;12.07;;;5.83;;
19798;SDS011;10059;59.850;10.454;2022-10-23T04:36:27;8.60;;;5.23;;
19798;SDS011;10059;59.850;10.454;2022-10-23T04:38:54;9.63;;;6.03;;
19798;SDS011;10059;59.850;10.454;2022-10-23T04:41:21;11.43;;;6.47;;
19798;SDS011;10059;59.850;10.454;2022-10-23T04:43:49;11.30;;;5.80;;
19798;SDS011;10059;59.850;10.454;2022-10-23T04:46:16;11.53;;;5.97;;
19798;SDS011;10059;59.850;10.454;2022-10-23T04:48:43;18.77;;;10.87;;
19798;SDS011;10059;59.850;10.454;2022-10-23T04:51:10;13.47;;;7.53;;
19798;SDS011;10059;59.850;10.454;2022-10-23T04:53:37;11.60;;;6.70;;
19798;SDS011;10059;59.850;10.454;2022-10-23T04:56:04;11.87;;;6.30;;
19798;SDS011;10059;59.850;10.454;2022-10-23T04:58:31;12.50;;;7.33;;
19798;SDS011;10059;59.850;10.454;2022-10-23T05:01:00;13.77;;;7.67;;
19798;SDS011;10059;59.850;10.454;2022-10-23T05:03:27;14.80;;;7.43;;
19798;SDS011;10059;59.850;10.454;2022-10-23T05:05:54;11.70;;;7.07;;
19798;SDS011;10059;59.850;10.454;2022-10-23T05:08:21;13.27;;;7.07;;
19798;SDS011;10059;59.850;10.454;2022-10-23T05:10:49;11.23;;;7.03;;
19798;SDS011;10059;59.850;10.454;2022-10-23T05:13:16;11.30;;;6.73;;
19798;SDS011;10059;59.850;10.454;2022-10-23T05:15:44;12.57;;;7.00;;
19798;SDS011;10059;59.850;10.454;2022-10-23T05:18:14;13.40;;;7.87;;
19798;SDS011;10059;59.850;10.454;2022-10-23T05:20:45;13.70;;;8.93;;
19798;SDS011;10059;59.850;10.454;2022-10-23T05:23:14;16.17;;;9.80;;
19798;SDS011;10059;59.850;10.454;2022-10-23T05:25:43;13.70;;;9.20;;
19798;SDS011;10059;59.850;10.454;2022-10-23T05:28:10;15.43;;;7.67;;
19798;SDS011;10059;59.850;10.454;2022-10-23T05:30:37;12.47;;;7.87;;
19798;SDS011;10059;59.850;10.454;2022-10-23T05:33:04;12.60;;;8.00;;
19798;SDS011;10059;59.850;10.454;2022-10-23T05:35:32;15.47;;;8.60;;
19798;SDS011;10059;59.850;10.454;2022-10-23T05:38:00;16.10;;;8.00;;
19798;SDS011;10059;59.850;10.454;2022-10-23T05:40:27;13.53;;;8.13;;
19798;SDS011;10059;59.850;10.454;2022-10-23T05:42:54;13.33;;;7.83;;
19798;SDS011;10059;59.850;10.454;2022-10-23T05:45:21;12.77;;;7.70;;
19798;SDS011;10059;59.850;10.454;2022-10-23T05:47:48;12.60;;;8.85;;
19798;SDS011;10059;59.850;10.454;2022-10-23T05:50:15;13.80;;;8.13;;
19798;SDS011;10059;59.850;10.454;2022-10-23T05:52:45;12.93;;;7.70;;
19798;SDS011;10059;59.850;10.454;2022-10-23T05:55:13;13.10;;;7.47;;
19798;SDS011;10059;59.850;10.454;2022-10-23T05:57:40;12.43;;;6.97;;
19798;SDS011;10059;59.850;10.454;2022-10-23T06:00:07;12.73;;;7.10;;
19798;SDS011;10059;59.850;10.454;2022-10-23T06:02:35;12.67;;;7.10;;
19798;SDS011;10059;59.850;10.454;2022-10-23T06:05:03;11.33;;;7.33;;
19798;SDS011;10059;59.850;10.454;2022-10-23T06:07:31;12.47;;;7.20;;
19798;SDS011;10059;59.850;10.454;2022-10-23T06:09:59;14.50;;;7.70;;
19798;SDS011;10059;59.850;10.454;2022-10-23T06:12:26;11.37;;;7.03;;
19798;SDS011;10059;59.850;10.454;2022-10-23T06:14:53;12.00;;;7.77;;
19798;SDS011;10059;59.850;10.454;2022-10-23T06:17:20;14.40;;;8.67;;
19798;SDS011;10059;59.850;10.454;2022-10-23T06:19:47;11.80;;;7.50;;
19798;SDS011;10059;59.850;10.454;2022-10-23T06:22:14;10.30;;;7.07;;
19798;SDS011;10059;59.850;10.454;2022-10-23T06:24:41;10.73;;;6.93;;
19798;SDS011;10059;59.850;10.454;2022-10-23T06:27:09;12.40;;;7.00;;
19798;SDS011;10059;59.850;10.454;2022-10-23T06:29:36;10.90;;;6.80;;
19798;SDS011;10059;59.850;10.454;2022-10-23T06:32:03;11.57;;;7.67;;
19798;SDS011;10059;59.850;10.454;2022-10-23T06:34:30;11.80;;;7.70;;
19798;SDS011;10059;59.850;10.454;2022-10-23T06:36:57;11.83;;;7.97;;
19798;SDS011;10059;59.850;10.454;2022-10-23T06:39:24;11.23;;;7.53;;
19798;SDS011;10059;59.850;10.454;2022-10-23T06:41:51;13.30;;;7.70;;
19798;SDS011;10059;59.850;10.454;2022-10-23T06:44:19;13.90;;;7.67;;
19798;SDS011;10059;59.850;10.454;2022-10-23T06:46:46;12.60;;;7.77;;
19798;SDS011;10059;59.850;10.454;2022-10-23T06:49:13;11.63;;;7.87;;
19798;SDS011;10059;59.850;10.454;2022-10-23T06:51:41;15.00;;;8.63;;
19798;SDS011;10059;59.850;10.454;2022-10-23T06:54:08;19.47;;;9.90;;
19798;SDS011;10059;59.850;10.454;2022-10-23T06:56:36;16.57;;;10.17;;
19798;SDS011;10059;59.850;10.454;2022-10-23T06:59:03;17.93;;;9.83;;
19798;SDS011;10059;59.850;10.454;2022-10-23T07:01:34;23.83;;;13.83;;
19798;SDS011;10059;59.850;10.454;2022-10-23T07:04:00;25.37;;;13.77;;
19798;SDS011;10059;59.850;10.454;2022-10-23T07:06:28;19.90;;;12.53;;
19798;SDS011;10059;59.850;10.454;2022-10-23T07:08:54;24.00;;;14.13;;
19798;SDS011;10059;59.850;10.454;2022-10-23T07:11:21;24.47;;;13.40;;
19798;SDS011;10059;59.850;10.454;2022-10-23T07:13:48;21.97;;;12.60;;
19798;SDS011;10059;59.850;10.454;2022-10-23T07:16:16;15.77;;;9.67;;
19798;SDS011;10059;59.850;10.454;2022-10-23T07:18:46;14.40;;;8.90;;
19798;SDS011;10059;59.850;10.454;2022-10-23T07:21:14;16.00;;;9.63;;
19798;SDS011;10059;59.850;10.454;2022-10-23T07:23:41;13.57;;;8.80;;
19798;SDS011;10059;59.850;10.454;2022-10-23T07:26:08;12.93;;;8.10;;
19798;SDS011;10059;59.850;10.454;2022-10-23T07:28:38;14.73;;;9.00;;
19798;SDS011;10059;59.850;10.454;2022-10-23T07:31:06;23.00;;;13.87;;
19798;SDS011;10059;59.850;10.454;2022-10-23T07:33:34;23.13;;;13.57;;
19798;SDS011;10059;59.850;10.454;2022-10-23T07:36:04;26.10;;;13.43;;
19798;SDS011;10059;59.850;10.454;2022-10-23T07:38:32;23.17;;;14.10;;
19798;SDS011;10059;59.850;10.454;2022-10-23T07:41:00;37.60;;;21.50;;
19798;SDS011;10059;59.850;10.454;2022-10-23T07:43:27;34.20;;;19.77;;
19798;SDS011;10059;59.850;10.454;2022-10-23T07:45:54;35.50;;;21.73;;
19798;SDS011;10059;59.850;10.454;2022-10-23T07:48:21;26.67;;;16.97;;
19798;SDS011;10059;59.850;10.454;2022-10-23T07:50:49;26.90;;;15.00;;
19798;SDS011;10059;59.850;10.454;2022-10-23T07:53:18;27.10;;;16.90;;
19798;SDS011;10059;59.850;10.454;2022-10-23T07:55:50;26.13;;;15.17;;
19798;SDS011;10059;59.850;10.454;2022-10-23T07:58:18;23.03;;;13.43;;
19798;SDS011;10059;59.850;10.454;2022-10-23T08:00:45;19.83;;;13.17;;
19798;SDS011;10059;59.850;10.454;2022-10-23T08:03:17;22.40;;;12.77;;
19798;SDS011;10059;59.850;10.454;2022-10-23T08:05:44;21.23;;;11.70;;
19798;SDS011;10059;59.850;10.454;2022-10-23T08:08:11;31.33;;;19.13;;
19798;SDS011;10059;59.850;10.454;2022-10-23T08:10:39;29.60;;;16.77;;
19798;SDS011;10059;59.850;10.454;2022-10-23T08:13:07;33.80;;;21.60;;
19798;SDS011;10059;59.850;10.454;2022-10-23T08:15:36;20.87;;;12.33;;
19798;SDS011;10059;59.850;10.454;2022-10-23T08:18:03;18.33;;;11.50;;
19798;SDS011;10059;59.850;10.454;2022-10-23T08:20:30;17.57;;;10.93;;
19798;SDS011;10059;59.850;10.454;2022-10-23T08:22:58;16.83;;;11.20;;
19798;SDS011;10059;59.850;10.454;2022-10-23T08:25:25;18.93;;;11.50;;
19798;SDS011;10059;59.850;10.454;2022-10-23T08:27:53;21.97;;;14.73;;
19798;SDS011;10059;59.850;10.454;2022-10-23T08:30:20;18.53;;;12.40;;
19798;SDS011;10059;59.850;10.454;2022-10-23T08:32:47;21.50;;;13.60;;
19798;SDS011;10059;59.850;10.454;2022-10-23T08:35:14;17.83;;;10.73;;
19798;SDS011;10059;59.850;10.454;2022-10-23T08:37:41;16.73;;;9.80;;
19798;SDS011;10059;59.850;10.454;2022-10-23T08:40:09;15.37;;;9.07;;
19798;SDS011;10059;59.850;10.454;2022-10-23T08:42:40;15.03;;;9.17;;
19798;SDS011;10059;59.850;10.454;2022-10-23T08:45:17;13.80;;;8.70;;
19798;SDS011;10059;59.850;10.454;2022-10-23T08:47:53;17.93;;;9.83;;
19798;SDS011;10059;59.850;10.454;2022-10-23T08:50:27;13.40;;;9.23;;
19798;SDS011;10059;59.850;10.454;2022-10-23T08:52:58;15.23;;;9.07;;
19798;SDS011;10059;59.850;10.454;2022-10-23T08:55:32;14.13;;;9.03;;
19798;SDS011;10059;59.850;10.454;2022-10-23T08:58:02;14.40;;;9.80;;
19798;SDS011;10059;59.850;10.454;2022-10-23T09:00:34;22.43;;;13.27;;
19798;SDS011;10059;59.850;10.454;2022-10-23T09:03:01;18.13;;;10.90;;
19798;SDS011;10059;59.850;10.454;2022-10-23T09:05:31;17.97;;;9.57;;
19798;SDS011;10059;59.850;10.454;2022-10-23T09:08:13;18.37;;;10.57;;
19798;SDS011;10059;59.850;10.454;2022-10-23T09:10:57;16.87;;;10.13;;
19798;SDS011;10059;59.850;10.454;2022-10-23T09:13:39;17.80;;;10.83;;
19798;SDS011;10059;59.850;10.454;2022-10-23T09:16:24;13.33;;;8.07;;
19798;SDS011;10059;59.850;10.454;2022-10-23T09:19:08;12.97;;;7.80;;
19798;SDS011;10059;59.850;10.454;2022-10-23T09:21:39;14.00;;;7.67;;
19798;SDS011;10059;59.850;10.454;2022-10-23T09:24:10;12.40;;;7.30;;
19798;SDS011;10059;59.850;10.454;2022-10-23T09:26:39;11.97;;;7.03;;
19798;SDS011;10059;59.850;10.454;2022-10-23T09:29:21;10.90;;;6.53;;
19798;SDS011;10059;59.850;10.454;2022-10-23T09:31:53;12.40;;;7.27;;
19798;SDS011;10059;59.850;10.454;2022-10-23T09:34:21;12.70;;;7.60;;
19798;SDS011;10059;59.850;10.454;2022-10-23T09:36:49;12.23;;;7.40;;
19798;SDS011;10059;59.850;10.454;2022-10-23T09:39:21;13.90;;;8.47;;
19798;SDS011;10059;59.850;10.454;2022-10-23T09:41:51;14.77;;;8.83;;
19798;SDS011;10059;59.850;10.454;2022-10-23T09:44:20;16.57;;;10.37;;
19798;SDS011;10059;59.850;10.454;2022-10-23T09:46:49;18.63;;;11.27;;
19798;SDS011;10059;59.850;10.454;2022-10-23T09:49:20;19.63;;;11.90;;
19798;SDS011;10059;59.850;10.454;2022-10-23T09:51:53;19.80;;;11.73;;
19798;SDS011;10059;59.850;10.454;2022-10-23T09:54:25;20.17;;;12.43;;
19798;SDS011;10059;59.850;10.454;2022-10-23T09:56:54;21.20;;;12.70;;
19798;SDS011;10059;59.850;10.454;2022-10-23T09:59:23;19.77;;;11.17;;
19798;SDS011;10059;59.850;10.454;2022-10-23T10:01:53;19.17;;;10.53;;
19798;SDS011;10059;59.850;10.454;2022-10-23T10:04:36;17.67;;;9.93;;
19798;SDS011;10059;59.850;10.454;2022-10-23T10:07:15;18.77;;;10.43;;
19798;SDS011;10059;59.850;10.454;2022-10-23T10:09:44;24.10;;;12.00;;
19798;SDS011;10059;59.850;10.454;2022-10-23T10:12:16;20.27;;;11.00;;
19798;SDS011;10059;59.850;10.454;2022-10-23T10:14:58;18.87;;;10.17;;
19798;SDS011;10059;59.850;10.454;2022-10-23T10:17:34;13.93;;;8.33;;
19798;SDS011;10059;59.850;10.454;2022-10-23T10:23:19;12.27;;;7.73;;
19798;SDS011;10059;59.850;10.454;2022-10-23T10:25:55;18.93;;;10.63;;
19798;SDS011;10059;59.850;10.454;2022-10-23T10:28:32;26.37;;;13.17;;
19798;SDS011;10059;59.850;10.454;2022-10-23T10:31:29;23.90;;;13.83;;
19798;SDS011;10059;59.850;10.454;2022-10-23T10:34:06;17.97;;;10.10;;
19798;SDS011;10059;59.850;10.454;2022-10-23T10:36:48;26.30;;;15.40;;
19798;SDS011;10059;59.850;10.454;2022-10-23T10:39:20;18.17;;;11.93;;
19798;SDS011;10059;59.850;10.454;2022-10-23T10:42:03;18.20;;;10.60;;
19798;SDS011;10059;59.850;10.454;2022-10-23T10:44:49;17.27;;;9.87;;
19798;SDS011;10059;59.850;10.454;2022-10-23T10:47:25;15.60;;;9.47;;
19798;SDS011;10059;59.850;10.454;2022-10-23T10:50:06;15.83;;;9.93;;
19798;SDS011;10059;59.850;10.454;2022-10-23T10:52:44;16.83;;;9.77;;
19798;SDS011;10059;59.850;10.454;2022-10-23T10:55:17;16.30;;;9.90;;
19798;SDS011;10059;59.850;10.454;2022-10-23T10:57:50;17.67;;;9.73;;
19798;SDS011;10059;59.850;10.454;2022-10-23T11:00:23;20.37;;;10.53;;
19798;SDS011;10059;59.850;10.454;2022-10-23T11:02:50;15.83;;;10.10;;
19798;SDS011;10059;59.850;10.454;2022-10-23T11:05:25;18.90;;;10.80;;
19798;SDS011;10059;59.850;10.454;2022-10-23T11:07:58;18.07;;;11.00;;
19798;SDS011;10059;59.850;10.454;2022-10-23T11:10:29;19.37;;;11.90;;
19798;SDS011;10059;59.850;10.454;2022-10-23T11:12:57;25.77;;;14.03;;
19798;SDS011;10059;59.850;10.454;2022-10-23T11:15:25;23.63;;;13.70;;
19798;SDS011;10059;59.850;10.454;2022-10-23T11:17:57;17.20;;;10.57;;
19798;SDS011;10059;59.850;10.454;2022-10-23T11:20:33;21.58;;;13.73;;
19798;SDS011;10059;59.850;10.454;2022-10-23T11:23:19;21.90;;;13.02;;
19798;SDS011;10059;59.850;10.454;2022-10-23T11:26:02;21.15;;;13.43;;
19798;SDS011;10059;59.850;10.454;2022-10-23T11:28:42;23.70;;;15.73;;
19798;SDS011;10059;59.850;10.454;2022-10-23T11:31:21;22.43;;;14.23;;
19798;SDS011;10059;59.850;10.454;2022-10-23T11:37:06;20.90;;;12.73;;
19798;SDS011;10059;59.850;10.454;2022-10-23T11:39:35;23.17;;;14.00;;
19798;SDS011;10059;59.850;10.454;2022-10-23T11:42:12;21.10;;;13.30;;
19798;SDS011;10059;59.850;10.454;2022-10-23T11:44:41;29.17;;;17.83;;
19798;SDS011;10059;59.850;10.454;2022-10-23T11:50:03;59.30;;;38.77;;
19798;SDS011;10059;59.850;10.454;2022-10-23T11:52:38;35.67;;;21.40;;
19798;SDS011;10059;59.850;10.454;2022-10-23T11:55:20;19.67;;;12.40;;
19798;SDS011;10059;59.850;10.454;2022-10-23T11:58:17;24.43;;;14.07;;
19798;SDS011;10059;59.850;10.454;2022-10-23T12:00:50;22.13;;;12.80;;
19798;SDS011;10059;59.850;10.454;2022-10-23T12:03:21;24.23;;;13.53;;
19798;SDS011;10059;59.850;10.454;2022-10-23T12:05:56;26.43;;;15.23;;
19798;SDS011;10059;59.850;10.454;2022-10-23T12:08:28;36.10;;;17.83;;
19798;SDS011;10059;59.850;10.454;2022-10-23T12:10:59;38.90;;;18.47;;
19798;SDS011;10059;59.850;10.454;2022-10-23T12:13:28;46.83;;;21.97;;
19798;SDS011;10059;59.850;10.454;2022-10-23T12:16:11;23.60;;;13.27;;
19798;SDS011;10059;59.850;10.454;2022-10-23T12:18:45;23.30;;;14.00;;
19798;SDS011;10059;59.850;10.454;2022-10-23T12:21:20;24.23;;;13.40;;
19798;SDS011;10059;59.850;10.454;2022-10-23T12:26:52;29.77;;;16.53;;
19798;SDS011;10059;59.850;10.454;2022-10-23T12:29:33;20.77;;;12.73;;
19798;SDS011;10059;59.850;10.454;2022-10-23T12:32:25;22.87;;;12.87;;
19798;SDS011;10059;59.850;10.454;2022-10-23T12:37:58;26.07;;;14.40;;
19798;SDS011;10059;59.850;10.454;2022-10-23T12:40:33;23.70;;;14.77;;
19798;SDS011;10059;59.850;10.454;2022-10-23T12:43:02;25.33;;;14.70;;
19798;SDS011;10059;59.850;10.454;2022-10-23T12:45:29;21.67;;;13.57;;
19798;SDS011;10059;59.850;10.454;2022-10-23T12:47:59;26.83;;;14.07;;
19798;SDS011;10059;59.850;10.454;2022-10-23T12:50:27;24.57;;;13.70;;
19798;SDS011;10059;59.850;10.454;2022-10-23T12:52:56;22.73;;;14.07;;
19798;SDS011;10059;59.850;10.454;2022-10-23T12:55:25;26.07;;;13.93;;
19798;SDS011;10059;59.850;10.454;2022-10-23T12:57:55;25.93;;;13.73;;
19798;SDS011;10059;59.850;10.454;2022-10-23T13:00:24;23.57;;;13.27;;
19798;SDS011;10059;59.850;10.454;2022-10-23T13:02:57;24.13;;;13.53;;
19798;SDS011;10059;59.850;10.454;2022-10-23T13:05:25;22.67;;;13.87;;
19798;SDS011;10059;59.850;10.454;2022-10-23T13:07:53;25.60;;;13.90;;
19798;SDS011;10059;59.850;10.454;2022-10-23T13:10:20;27.03;;;13.93;;
19798;SDS011;10059;59.850;10.454;2022-10-23T13:12:51;24.93;;;13.20;;
19798;SDS011;10059;59.850;10.454;2022-10-23T13:15:21;28.63;;;13.17;;
19798;SDS011;10059;59.850;10.454;2022-10-23T13:18:00;29.50;;;14.00;;
19798;SDS011;10059;59.850;10.454;2022-10-23T13:20:29;28.17;;;14.47;;
19798;SDS011;10059;59.850;10.454;2022-10-23T13:22:59;28.50;;;15.47;;
19798;SDS011;10059;59.850;10.454;2022-10-23T13:25:35;26.60;;;14.40;;
19798;SDS011;10059;59.850;10.454;2022-10-23T13:28:11;38.73;;;21.40;;
19798;SDS011;10059;59.850;10.454;2022-10-23T13:30:56;27.17;;;14.67;;
19798;SDS011;10059;59.850;10.454;2022-10-23T13:33:30;26.50;;;14.90;;
19798;SDS011;10059;59.850;10.454;2022-10-23T13:36:00;30.97;;;15.90;;
19798;SDS011;10059;59.850;10.454;2022-10-23T13:38:28;30.23;;;18.03;;
19798;SDS011;10059;59.850;10.454;2022-10-23T13:40:57;32.13;;;17.73;;
19798;SDS011;10059;59.850;10.454;2022-10-23T13:43:25;28.80;;;16.23;;
19798;SDS011;10059;59.850;10.454;2022-10-23T13:45:53;28.20;;;16.37;;
19798;SDS011;10059;59.850;10.454;2022-10-23T13:48:20;29.90;;;15.70;;
19798;SDS011;10059;59.850;10.454;2022-10-23T13:50:48;31.40;;;17.57;;
19798;SDS011;10059;59.850;10.454;2022-10-23T13:53:15;28.23;;;15.37;;
19798;SDS011;10059;59.850;10.454;2022-10-23T13:55:42;30.63;;;16.20;;
19798;SDS011;10059;59.850;10.454;2022-10-23T13:58:11;41.77;;;24.30;;
19798;SDS011;10059;59.850;10.454;2022-10-23T14:00:38;29.10;;;16.23;;
19798;SDS011;10059;59.850;10.454;2022-10-23T14:03:07;30.47;;;17.27;;
19798;SDS011;10059;59.850;10.454;2022-10-23T14:05:34;32.73;;;16.63;;
19798;SDS011;10059;59.850;10.454;2022-10-23T14:08:03;32.20;;;17.40;;
19798;SDS011;10059;59.850;10.454;2022-10-23T14:10:30;29.57;;;17.67;;
19798;SDS011;10059;59.850;10.454;2022-10-23T14:12:57;33.47;;;17.57;;
19798;SDS011;10059;59.850;10.454;2022-10-23T14:15:24;35.10;;;17.20;;
19798;SDS011;10059;59.850;10.454;2022-10-23T14:17:51;35.00;;;16.27;;
19798;SDS011;10059;59.850;10.454;2022-10-23T14:20:18;31.37;;;15.97;;
19798;SDS011;10059;59.850;10.454;2022-10-23T14:22:45;30.87;;;14.97;;
19798;SDS011;10059;59.850;10.454;2022-10-23T14:25:13;32.23;;;19.13;;
19798;SDS011;10059;59.850;10.454;2022-10-23T14:27:40;35.13;;;18.50;;
19798;SDS011;10059;59.850;10.454;2022-10-23T14:30:07;29.27;;;16.47;;
19798;SDS011;10059;59.850;10.454;2022-10-23T14:32:35;32.30;;;15.63;;
19798;SDS011;10059;59.850;10.454;2022-10-23T14:35:02;32.53;;;16.60;;
19798;SDS011;10059;59.850;10.454;2022-10-23T14:37:30;33.15;;;21.10;;
19798;SDS011;10059;59.850;10.454;2022-10-23T14:39:59;33.00;;;17.43;;
19798;SDS011;10059;59.850;10.454;2022-10-23T14:42:27;32.60;;;16.87;;
19798;SDS011;10059;59.850;10.454;2022-10-23T14:44:58;34.13;;;19.10;;
19798;SDS011;10059;59.850;10.454;2022-10-23T14:47:25;36.30;;;19.43;;
19798;SDS011;10059;59.850;10.454;2022-10-23T14:49:52;35.73;;;18.70;;
19798;SDS011;10059;59.850;10.454;2022-10-23T14:52:20;33.53;;;18.13;;